Time;durP1;ratioP1;P1;durP2;ratioP2;P2;SDS_P1;SDS_P2;PMS_P1;PMS_P2;Temp;Humidity;BMP_temperature;BMP_pressure;BME280_temperature;BME280_humidity;BME280_pressure;Samples;Min_cycle;Max_cycle;Signal;HPM_P1;HPM_P2
2023/02/13 00:00:32;;;;;;;15.20;10.70;;;8.60;55.40;;;;;;5011107;28;20475;-51
2023/02/13 00:02:57;;;;;;;13.23;10.60;;;8.60;55.40;;;;;;5022763;28;20480;-51
2023/02/13 00:05:23;;;;;;;14.00;11.17;;;8.60;55.30;;;;;;5016462;28;20474;-53
2023/02/13 00:07:49;;;;;;;13.37;10.00;;;8.60;55.30;;;;;;5030830;28;20208;-51
2023/02/13 00:10:14;;;;;;;13.40;11.43;;;8.60;55.40;;;;;;5030099;28;20242;-50
2023/02/13 00:12:40;;;;;;;14.17;10.70;;;8.60;55.40;;;;;;5027655;28;20280;-51
2023/02/13 00:15:07;;;;;;;16.80;10.67;;;8.60;55.60;;;;;;5027285;28;20607;-53
2023/02/13 00:17:33;;;;;;;14.70;11.93;;;8.60;55.60;;;;;;5027769;28;20564;-51
2023/02/13 00:19:59;;;;;;;14.80;10.57;;;8.60;55.60;;;;;;5025972;28;20535;-51
2023/02/13 00:22:24;;;;;;;14.20;11.00;;;8.60;55.60;;;;;;5022711;28;20213;-55
2023/02/13 00:24:50;;;;;;;14.43;11.57;;;8.60;55.50;;;;;;5019722;28;20796;-52
2023/02/13 00:27:16;;;;;;;15.00;11.10;;;8.60;55.60;;;;;;5015441;28;20204;-52
2023/02/13 00:29:41;;;;;;;14.70;10.83;;;8.60;55.60;;;;;;5024887;28;20233;-51
2023/02/13 00:32:07;;;;;;;13.10;10.00;;;8.50;55.40;;;;;;5021195;28;20567;-50
2023/02/13 00:34:33;;;;;;;15.83;11.30;;;8.50;55.30;;;;;;5021364;28;20197;-54
2023/02/13 00:36:58;;;;;;;15.03;10.03;;;8.50;55.20;;;;;;5020659;28;20446;-52
2023/02/13 00:39:24;;;;;;;14.70;10.87;;;8.50;55.20;;;;;;5021269;28;20196;-53
2023/02/13 00:41:50;;;;;;;13.73;11.13;;;8.50;55.20;;;;;;5022002;28;20212;-50
2023/02/13 00:44:15;;;;;;;14.03;10.80;;;8.50;55.20;;;;;;5023931;28;20201;-52
2023/02/13 00:46:41;;;;;;;16.37;11.67;;;8.40;55.10;;;;;;5015246;28;20224;-52
2023/02/13 00:49:06;;;;;;;13.40;9.80;;;8.40;55.20;;;;;;5028971;28;20189;-52
2023/02/13 00:51:32;;;;;;;13.50;10.77;;;8.40;55.20;;;;;;5019743;28;20201;-51
2023/02/13 00:53:58;;;;;;;13.97;10.83;;;8.40;55.20;;;;;;5021304;28;20208;-52
2023/02/13 00:56:23;;;;;;;14.13;10.97;;;8.40;55.30;;;;;;5023463;28;20268;-51
2023/02/13 00:58:49;;;;;;;13.80;9.60;;;8.30;55.30;;;;;;5003938;28;20222;-54
2023/02/13 01:01:14;;;;;;;13.57;10.50;;;8.30;55.60;;;;;;5024570;28;20201;-53
2023/02/13 01:03:40;;;;;;;15.90;11.40;;;8.20;55.90;;;;;;5023339;28;20252;-51
2023/02/13 01:06:06;;;;;;;13.80;9.63;;;8.20;56.00;;;;;;5014626;28;20202;-49
2023/02/13 01:08:33;;;;;;;13.77;10.67;;;8.30;56.00;;;;;;5019380;28;20201;-51
2023/02/13 01:10:59;;;;;;;15.33;10.73;;;8.30;56.00;;;;;;5024123;28;20447;-52
2023/02/13 01:13:25;;;;;;;12.70;9.23;;;8.20;55.80;;;;;;5027586;28;20458;-49
2023/02/13 01:15:50;;;;;;;13.33;9.30;;;8.20;55.80;;;;;;5024209;28;20201;-52
2023/02/13 01:18:18;;;;;;;16.00;11.40;;;8.10;55.80;;;;;;5022318;28;20447;-53
2023/02/13 01:20:44;;;;;;;13.87;9.60;;;8.00;55.90;;;;;;5024119;28;20208;-51
2023/02/13 01:23:11;;;;;;;13.60;9.63;;;7.90;55.90;;;;;;5016605;28;20685;-52
2023/02/13 01:25:43;;;;;;;13.87;10.10;;;8.00;55.80;;;;;;5021849;28;20454;-48
2023/02/13 01:28:08;;;;;;;13.70;10.60;;;8.00;55.60;;;;;;5026770;28;21014;-51
2023/02/13 01:30:34;;;;;;;16.67;10.57;;;8.00;55.40;;;;;;5024298;28;20436;-51
2023/02/13 01:32:59;;;;;;;14.07;10.97;;;8.00;55.30;;;;;;5023151;28;20208;-49
2023/02/13 01:35:25;;;;;;;13.63;9.40;;;8.00;55.30;;;;;;5024864;28;20209;-49
2023/02/13 01:37:51;;;;;;;13.60;9.97;;;8.00;55.20;;;;;;5015213;28;20574;-52
2023/02/13 01:40:16;;;;;;;14.13;10.20;;;8.00;55.20;;;;;;5018497;28;20272;-51
2023/02/13 01:42:42;;;;;;;15.50;11.17;;;8.00;55.10;;;;;;5028439;28;20269;-52
2023/02/13 01:45:28;;;;;;;15.77;10.77;;;8.10;55.10;;;;;;5030200;28;20197;-49
2023/02/13 01:47:57;;;;;;;13.67;10.53;;;8.10;54.90;;;;;;5022866;28;20440;-51
2023/02/13 01:50:58;;;;;;;15.20;11.10;;;8.00;54.70;;;;;;5021898;28;20510;-52
2023/02/13 01:53:26;;;;;;;14.27;10.40;;;8.00;54.60;;;;;;5024695;28;20481;-50
2023/02/13 01:56:04;;;;;;;16.10;10.23;;;7.90;54.80;;;;;;5030122;28;20455;-49
2023/02/13 01:58:34;;;;;;;13.43;10.17;;;7.80;55.00;;;;;;5032317;28;20482;-49
2023/02/13 02:01:00;;;;;;;18.70;10.13;;;7.70;55.40;;;;;;5032947;28;20482;-50
2023/02/13 02:03:35;;;;;;;14.93;10.00;;;7.70;55.70;;;;;;5013668;28;20492;-49
2023/02/13 02:06:01;;;;;;;13.20;10.23;;;7.60;55.80;;;;;;5026616;28;20427;-50
2023/02/13 02:08:28;;;;;;;14.27;10.50;;;7.60;55.60;;;;;;5031063;28;20498;-50
2023/02/13 02:10:59;;;;;;;13.23;9.80;;;7.60;55.40;;;;;;5031299;28;20459;-50
2023/02/13 02:13:25;;;;;;;15.13;11.03;;;7.70;55.40;;;;;;5027898;28;20478;-50
2023/02/13 02:15:51;;;;;;;15.13;10.40;;;7.60;55.30;;;;;;5030294;28;20456;-49
2023/02/13 02:18:20;;;;;;;15.57;10.27;;;7.60;55.10;;;;;;5030946;28;20935;-49
2023/02/13 02:21:08;;;;;;;14.90;10.40;;;7.70;54.90;;;;;;5026987;28;20487;-48
2023/02/13 02:23:58;;;;;;;13.63;9.80;;;7.60;54.70;;;;;;5027523;28;20487;-53
2023/02/13 02:27:05;;;;;;;14.73;11.30;;;7.50;54.80;;;;;;5026335;28;20444;-52
2023/02/13 02:29:49;;;;;;;16.70;11.10;;;7.50;55.10;;;;;;5014000;28;21473;-49
2023/02/13 02:32:35;;;;;;;13.23;9.83;;;7.50;55.00;;;;;;5020632;28;20474;-49
2023/02/13 02:35:25;;;;;;;12.53;8.80;;;7.50;54.90;;;;;;5026489;28;20459;-50
2023/02/13 02:38:17;;;;;;;14.20;10.50;;;7.40;55.00;;;;;;5023251;28;20951;-50
2023/02/13 02:41:05;;;;;;;15.40;10.20;;;7.40;55.20;;;;;;5023981;28;20462;-49
2023/02/13 02:43:50;;;;;;;13.70;9.93;;;7.40;55.30;;;;;;5018484;28;20894;-49
2023/02/13 02:46:20;;;;;;;18.53;10.17;;;7.40;55.30;;;;;;5026564;28;20448;-51
2023/02/13 02:51:40;;;;;;;13.50;9.43;;;7.30;55.10;;;;;;5018725;28;21079;-50
2023/02/13 02:57:08;;;;;;;15.40;10.47;;;7.30;55.20;;;;;;5027109;28;20455;-50
2023/02/13 03:08:05;;;;;;;14.80;10.77;;;7.30;55.10;;;;;;5024347;28;20447;-51
2023/02/13 03:13:39;;;;;;;12.37;10.63;;;7.30;54.60;;;;;;5025967;28;20448;-49
2023/02/13 03:22:17;;;;;;;12.20;9.20;;;7.20;54.30;;;;;;5024937;28;20444;-50
2023/02/13 03:22:20;;;;;;;15.27;10.37;;;7.10;54.50;;;;;;5028216;28;20482;-49
2023/02/13 03:25:01;;;;;;;12.30;9.53;;;7.10;54.70;;;;;;5025635;28;20456;-49
2023/02/13 03:30:40;;;;;;;10.83;8.70;;;6.90;55.20;;;;;;5025330;28;20483;-49
2023/02/13 03:33:09;;;;;;;13.17;10.50;;;6.90;55.30;;;;;;5024888;28;20458;-49
2023/02/13 03:39:10;;;;;;;13.20;9.20;;;6.90;55.50;;;;;;5027878;28;21018;-49
2023/02/13 03:41:50;;;;;;;19.87;9.40;;;6.90;55.60;;;;;;5016909;28;20488;-50
2023/02/13 03:44:28;;;;;;;12.00;8.97;;;6.90;55.40;;;;;;5029570;28;20455;-49
2023/02/13 03:46:57;;;;;;;13.50;10.37;;;6.90;55.30;;;;;;5030314;28;20463;-50
2023/02/13 03:50:11;;;;;;;14.07;9.00;;;6.90;54.80;;;;;;5028573;28;20443;-49
2023/02/13 03:52:41;;;;;;;13.23;10.07;;;6.90;54.50;;;;;;5024272;28;20459;-50
2023/02/13 04:00:51;;;;;;;12.50;8.40;;;6.80;54.30;;;;;;5030197;28;20471;-51
2023/02/13 04:03:25;;;;;;;14.07;9.63;;;6.80;54.40;;;;;;5027261;28;20488;-50
2023/02/13 04:06:40;;;;;;;15.70;11.13;;;6.80;54.60;;;;;;5032740;28;21002;-50
2023/02/13 04:09:06;;;;;;;14.47;9.77;;;6.80;54.40;;;;;;5002644;28;20463;-50
2023/02/13 04:11:40;;;;;;;12.73;8.93;;;6.80;54.30;;;;;;5028943;28;20487;-51
2023/02/13 04:14:13;;;;;;;14.47;9.63;;;6.70;54.50;;;;;;5024483;28;20266;-49
2023/02/13 04:16:49;;;;;;;16.97;14.77;;;6.70;54.70;;;;;;5027818;28;20448;-49
2023/02/13 04:19:15;;;;;;;17.07;10.63;;;6.70;55.10;;;;;;5020412;28;20478;-49
2023/02/13 04:21:41;;;;;;;15.07;10.93;;;6.70;55.30;;;;;;5030036;28;20444;-50
2023/02/13 04:24:07;;;;;;;14.77;9.40;;;6.80;55.40;;;;;;5025872;28;20471;-49
2023/02/13 04:26:39;;;;;;;15.87;10.60;;;6.70;55.30;;;;;;5019692;28;20924;-49
2023/02/13 04:29:04;;;;;;;14.83;10.57;;;6.70;55.20;;;;;;5027335;28;20501;-50
2023/02/13 04:31:30;;;;;;;11.97;9.10;;;6.50;55.60;;;;;;5008018;28;20476;-50
2023/02/13 04:33:56;;;;;;;13.00;10.37;;;6.60;55.80;;;;;;5015700;28;20449;-50
2023/02/13 04:36:22;;;;;;;14.00;9.40;;;6.60;55.40;;;;;;5021408;28;20193;-48
2023/02/13 04:38:47;;;;;;;12.90;8.87;;;6.60;55.20;;;;;;5019446;28;20439;-49
2023/02/13 04:41:13;;;;;;;14.10;9.37;;;6.60;54.90;;;;;;5007716;28;20201;-50
2023/02/13 04:43:38;;;;;;;14.67;10.27;;;6.60;55.40;;;;;;5021893;28;20229;-49
2023/02/13 04:46:04;;;;;;;17.20;10.30;;;6.70;54.80;;;;;;5028666;28;20205;-50
2023/02/13 04:48:30;;;;;;;14.10;9.90;;;6.60;54.60;;;;;;5024617;28;20194;-49
2023/02/13 04:50:55;;;;;;;16.23;10.17;;;6.50;54.80;;;;;;5019200;28;20205;-50
2023/02/13 04:53:21;;;;;;;14.63;9.87;;;6.50;55.20;;;;;;5013854;28;20194;-49
2023/02/13 04:55:48;;;;;;;17.90;9.90;;;6.40;55.50;;;;;;5024029;28;20239;-49
2023/02/13 04:58:13;;;;;;;16.17;10.57;;;6.40;56.00;;;;;;5018461;28;20253;-49
2023/02/13 05:00:39;;;;;;;13.17;9.57;;;6.40;56.10;;;;;;5014730;28;20480;-49
2023/02/13 05:03:07;;;;;;;14.83;9.90;;;6.40;56.20;;;;;;5020342;28;20264;-49
2023/02/13 05:05:33;;;;;;;14.50;10.20;;;6.40;56.00;;;;;;5030343;28;20213;-48
2023/02/13 05:07:59;;;;;;;15.03;8.90;;;6.40;55.90;;;;;;5029908;28;20460;-49
2023/02/13 05:10:25;;;;;;;15.60;10.00;;;6.50;55.90;;;;;;5031166;28;20537;-50
2023/02/13 05:12:50;;;;;;;17.67;9.63;;;6.50;55.70;;;;;;5019853;28;20198;-49
2023/02/13 05:15:16;;;;;;;15.23;9.60;;;6.50;55.20;;;;;;5020878;28;20201;-50
2023/02/13 05:17:45;;;;;;;16.70;10.87;;;6.50;55.10;;;;;;5015154;28;20265;-49
2023/02/13 05:20:12;;;;;;;22.70;10.50;;;6.40;54.90;;;;;;5025480;28;20219;-49
2023/02/13 05:25:28;;;;;;;14.67;9.40;;;6.50;54.70;;;;;;5028048;28;20454;-49
2023/02/13 05:27:53;;;;;;;15.73;11.47;;;6.50;54.70;;;;;;5021328;28;20440;-49
2023/02/13 05:30:19;;;;;;;15.93;10.60;;;6.40;54.80;;;;;;5030797;28;20235;-49
2023/02/13 05:32:44;;;;;;;14.83;10.40;;;6.40;54.90;;;;;;5027684;28;20220;-49
2023/02/13 05:35:10;;;;;;;15.63;10.67;;;6.40;54.90;;;;;;5029363;28;20225;-49
2023/02/13 05:37:36;;;;;;;17.13;11.13;;;6.40;54.90;;;;;;5024381;28;20201;-51
2023/02/13 05:40:02;;;;;;;16.90;11.07;;;6.50;55.10;;;;;;5023598;28;20624;-50
2023/02/13 05:42:28;;;;;;;20.10;11.53;;;6.40;55.70;;;;;;5032811;28;20256;-49
2023/02/13 05:44:53;;;;;;;25.57;11.73;;;6.30;56.00;;;;;;5029659;28;20525;-50
2023/02/13 05:47:19;;;;;;;20.00;11.80;;;6.40;56.10;;;;;;5024018;28;20246;-50
2023/02/13 05:49:44;;;;;;;17.47;11.80;;;6.30;56.00;;;;;;5017258;28;20193;-49
2023/02/13 05:52:10;;;;;;;24.23;11.70;;;6.30;56.30;;;;;;5013298;28;20302;-49
2023/02/13 05:54:37;;;;;;;21.67;13.03;;;6.30;56.50;;;;;;5026892;28;20201;-52
2023/02/13 05:57:03;;;;;;;19.30;11.90;;;6.20;56.90;;;;;;5033186;28;20679;-50
2023/02/13 05:59:28;;;;;;;19.63;12.47;;;6.10;57.10;;;;;;5025064;28;20468;-49
2023/02/13 06:01:54;;;;;;;19.97;12.40;;;6.10;57.10;;;;;;5013574;28;20200;-49
2023/02/13 06:04:19;;;;;;;17.47;11.67;;;6.10;57.10;;;;;;5013599;28;20189;-48
2023/02/13 06:06:45;;;;;;;25.63;12.43;;;6.10;57.30;;;;;;5022183;28;20188;-49
2023/02/13 06:09:11;;;;;;;26.60;12.80;;;6.10;57.40;;;;;;5031947;28;20240;-50
2023/02/13 06:11:36;;;;;;;26.00;11.20;;;6.10;57.30;;;;;;5032592;28;20275;-50
2023/02/13 06:14:02;;;;;;;21.87;12.60;;;6.10;57.40;;;;;;5025261;28;20560;-52
2023/02/13 06:16:29;;;;;;;19.50;11.17;;;6.20;57.30;;;;;;5030365;28;20196;-51
2023/02/13 06:18:55;;;;;;;17.93;12.03;;;6.20;57.10;;;;;;5027188;28;20197;-51
2023/02/13 06:21:21;;;;;;;20.47;11.40;;;6.20;57.10;;;;;;5030421;28;20440;-51
2023/02/13 06:23:47;;;;;;;17.43;11.67;;;6.10;57.20;;;;;;5029531;28;20487;-55
2023/02/13 06:26:12;;;;;;;23.00;11.47;;;6.10;57.20;;;;;;5025011;28;20522;-53
2023/02/13 06:28:38;;;;;;;17.20;9.47;;;6.10;57.20;;;;;;5028315;28;22300;-54
2023/02/13 06:31:04;;;;;;;23.47;12.30;;;6.30;58.70;;;;;;5029533;28;20277;-55
2023/02/13 06:33:30;;;;;;;20.07;12.30;;;6.70;60.60;;;;;;5026172;28;20197;-54
2023/02/13 06:35:55;;;;;;;18.07;11.30;;;7.00;59.80;;;;;;5028751;28;20232;-54
2023/02/13 06:38:21;;;;;;;17.70;11.10;;;7.30;59.20;;;;;;5029538;28;20205;-52
2023/02/13 06:40:48;;;;;;;21.90;14.07;;;7.70;59.20;;;;;;5026248;28;20277;-56
2023/02/13 06:43:14;;;;;;;16.30;11.37;;;7.90;58.50;;;;;;5023708;28;20256;-54
2023/02/13 06:45:40;;;;;;;22.80;10.80;;;8.30;57.30;;;;;;5019280;28;20444;-52
2023/02/13 06:48:06;;;;;;;23.53;13.70;;;8.50;56.30;;;;;;5024941;28;20454;-54
2023/02/13 06:50:31;;;;;;;14.47;10.37;;;8.80;55.60;;;;;;5021864;28;20452;-54
2023/02/13 06:52:57;;;;;;;15.53;10.63;;;8.80;54.00;;;;;;5027399;28;20636;-53
2023/02/13 06:55:22;;;;;;;17.53;11.47;;;8.80;54.10;;;;;;5021920;28;20193;-53
2023/02/13 06:57:48;;;;;;;16.93;12.20;;;8.80;54.20;;;;;;5028582;28;20193;-53
2023/02/13 07:00:16;;;;;;;18.40;11.70;;;8.90;53.70;;;;;;5027584;28;20216;-53
2023/02/13 07:02:43;;;;;;;26.90;12.60;;;9.10;53.40;;;;;;5026423;28;20229;-53
2023/02/13 07:05:09;;;;;;;20.30;12.67;;;9.20;53.00;;;;;;5019925;28;20447;-52
2023/02/13 07:07:36;;;;;;;22.07;13.30;;;9.30;52.50;;;;;;5025833;28;20444;-52
2023/02/13 07:10:04;;;;;;;37.07;14.03;;;9.40;52.30;;;;;;5024210;28;20466;-53
2023/02/13 07:12:32;;;;;;;27.17;13.80;;;9.50;51.70;;;;;;5023920;28;20444;-53
2023/02/13 07:14:58;;;;;;;22.97;12.63;;;9.60;51.30;;;;;;5022473;28;20502;-53
2023/02/13 07:17:25;;;;;;;21.80;13.50;;;9.60;50.90;;;;;;5028985;28;20448;-54
2023/02/13 07:19:50;;;;;;;22.87;13.37;;;9.70;51.50;;;;;;5028967;28;20197;-54
2023/02/13 07:22:16;;;;;;;23.20;13.77;;;9.70;51.30;;;;;;5027566;28;20533;-53
2023/02/13 07:24:41;;;;;;;23.33;14.80;;;9.70;50.90;;;;;;5027222;28;20194;-51
2023/02/13 07:27:07;;;;;;;17.47;11.50;;;9.70;51.20;;;;;;5017806;28;20566;-54
2023/02/13 07:29:32;;;;;;;24.07;14.90;;;9.80;51.30;;;;;;5024994;28;20336;-51
2023/02/13 07:31:58;;;;;;;23.33;13.50;;;9.80;51.20;;;;;;5028592;28;20190;-53
2023/02/13 07:34:23;;;;;;;19.60;12.47;;;9.90;50.90;;;;;;5015886;28;20544;-53
2023/02/13 07:36:49;;;;;;;22.87;13.90;;;10.00;49.40;;;;;;5025658;28;20239;-51
2023/02/13 07:39:15;;;;;;;20.83;13.27;;;9.90;50.20;;;;;;5022564;28;20212;-51
2023/02/13 07:41:40;;;;;;;17.10;11.30;;;9.80;50.30;;;;;;5026468;28;21617;-52
2023/02/13 07:44:06;;;;;;;30.43;14.90;;;9.80;51.10;;;;;;5019769;28;20660;-51
2023/02/13 07:46:31;;;;;;;25.60;15.00;;;9.90;51.70;;;;;;5024971;28;20198;-53
2023/02/13 07:48:57;;;;;;;21.53;14.07;;;10.00;50.30;;;;;;5024731;28;20197;-53
2023/02/13 07:51:25;;;;;;;23.27;13.73;;;10.10;49.70;;;;;;5027762;28;20189;-51
2023/02/13 07:53:51;;;;;;;16.97;12.70;;;9.90;49.90;;;;;;5025631;28;20239;-52
2023/02/13 07:56:17;;;;;;;21.83;13.13;;;9.80;49.90;;;;;;5025634;28;20965;-53
2023/02/13 07:58:43;;;;;;;21.70;13.50;;;9.60;50.60;;;;;;5023911;28;20448;-51
2023/02/13 08:01:12;;;;;;;21.37;14.40;;;9.50;51.20;;;;;;5030063;28;20193;-53
2023/02/13 08:03:37;;;;;;;18.83;12.83;;;9.60;51.40;;;;;;5022862;28;20926;-53
2023/02/13 08:06:04;;;;;;;17.70;12.70;;;9.80;51.40;;;;;;5027628;28;20534;-54
2023/02/13 08:08:30;;;;;;;18.57;13.10;;;10.10;50.50;;;;;;5022700;28;20456;-51
2023/02/13 08:13:41;;;;;;;21.90;14.03;;;10.60;49.50;;;;;;5022178;28;20211;-53
2023/02/13 08:16:07;;;;;;;19.80;13.90;;;10.80;49.20;;;;;;5023075;28;20456;-53
2023/02/13 08:18:32;;;;;;;21.63;14.20;;;10.90;48.80;;;;;;5025824;28;20501;-52
2023/02/13 08:21:00;;;;;;;20.03;13.83;;;11.10;48.60;;;;;;5024662;28;20224;-50
2023/02/13 08:23:25;;;;;;;19.57;14.20;;;10.90;47.80;;;;;;5022132;28;20233;-52
2023/02/13 08:25:51;;;;;;;18.80;14.13;;;10.90;48.60;;;;;;5022695;28;20475;-53
2023/02/13 08:28:16;;;;;;;17.70;12.93;;;11.00;48.90;;;;;;5025210;28;20193;-52
2023/02/13 08:30:42;;;;;;;22.80;13.87;;;11.10;49.00;;;;;;5013007;28;20955;-54
2023/02/13 08:33:08;;;;;;;20.37;13.50;;;11.20;48.70;;;;;;5017178;28;20196;-50
2023/02/13 08:35:33;;;;;;;22.00;14.50;;;11.30;48.90;;;;;;5022662;28;20193;-54
2023/02/13 08:38:03;;;;;;;19.47;14.73;;;11.30;49.10;;;;;;5027847;28;20205;-51
2023/02/13 08:40:29;;;;;;;23.03;14.83;;;11.30;49.50;;;;;;5020015;28;20217;-55
2023/02/13 08:43:03;;;;;;;20.27;14.30;;;11.30;49.50;;;;;;5022843;28;20537;-55
2023/02/13 08:45:29;;;;;;;23.03;15.77;;;11.30;49.50;;;;;;5025753;28;20523;-55
2023/02/13 08:47:59;;;;;;;27.77;16.90;;;11.20;50.30;;;;;;5022799;28;20460;-52
2023/02/13 08:50:26;;;;;;;22.60;14.90;;;11.10;50.20;;;;;;5022842;28;20498;-54
2023/02/13 08:52:52;;;;;;;21.80;16.00;;;11.10;49.90;;;;;;5023500;28;20472;-51
2023/02/13 08:55:18;;;;;;;21.40;15.13;;;11.00;50.60;;;;;;5020219;28;20812;-51
2023/02/13 08:57:44;;;;;;;22.03;14.87;;;11.00;50.20;;;;;;5028150;28;20444;-54
2023/02/13 09:00:10;;;;;;;21.80;15.70;;;10.90;50.20;;;;;;5029205;28;20311;-51
2023/02/13 09:02:35;;;;;;;23.30;14.67;;;11.00;51.00;;;;;;5025182;28;20243;-53
2023/02/13 09:05:01;;;;;;;22.33;13.73;;;11.10;51.30;;;;;;5025483;28;20448;-55
2023/02/13 09:07:26;;;;;;;19.83;13.07;;;11.20;51.80;;;;;;5029100;28;20650;-54
2023/02/13 09:09:52;;;;;;;17.57;12.50;;;11.20;51.70;;;;;;5023289;28;20197;-55
2023/02/13 09:12:17;;;;;;;19.37;13.80;;;11.10;52.00;;;;;;5031382;28;20221;-55
2023/02/13 09:14:43;;;;;;;17.70;11.40;;;11.20;52.00;;;;;;5020023;28;20193;-51
2023/02/13 09:17:09;;;;;;;15.00;11.30;;;11.30;52.40;;;;;;5024251;28;20285;-52
2023/02/13 09:19:34;;;;;;;14.17;10.33;;;11.00;51.80;;;;;;5028784;28;20691;-52
2023/02/13 09:22:00;;;;;;;17.10;12.27;;;10.80;52.10;;;;;;5029504;28;20193;-57
2023/02/13 09:24:25;;;;;;;14.23;10.77;;;11.10;52.60;;;;;;5020820;28;20288;-56
2023/02/13 09:26:51;;;;;;;14.80;10.80;;;11.30;52.40;;;;;;5030758;28;20606;-57
2023/02/13 09:29:17;;;;;;;15.77;12.10;;;11.50;52.40;;;;;;5017565;28;20251;-55
2023/02/13 09:31:42;;;;;;;14.43;10.93;;;11.90;52.10;;;;;;5030493;28;20204;-56
2023/02/13 09:34:08;;;;;;;15.90;10.90;;;12.10;51.30;;;;;;5025987;28;20193;-55
2023/02/13 09:36:35;;;;;;;12.03;9.53;;;12.40;50.80;;;;;;5027767;28;20284;-56
2023/02/13 09:39:01;;;;;;;12.37;9.33;;;12.60;49.70;;;;;;5024465;28;20197;-54
2023/02/13 09:41:39;;;;;;;13.13;9.60;;;12.70;49.40;;;;;;5023891;28;20444;-53
2023/02/13 09:44:37;;;;;;;12.10;9.80;;;12.80;49.20;;;;;;5026092;28;20234;-53
2023/02/13 09:47:34;;;;;;;10.67;8.60;;;13.10;48.90;;;;;;5027560;28;20444;-52
2023/02/13 09:50:15;;;;;;;9.80;8.40;;;13.10;48.00;;;;;;5028752;28;20550;-53
2023/02/13 09:52:44;;;;;;;11.97;8.73;;;13.30;48.30;;;;;;5027394;28;20466;-57
2023/02/13 09:55:22;;;;;;;9.43;8.43;;;13.20;47.40;;;;;;5024760;28;20451;-54
2023/02/13 09:58:04;;;;;;;10.87;8.90;;;13.00;48.00;;;;;;5028314;28;21032;-55
2023/02/13 10:00:33;;;;;;;8.97;7.70;;;13.00;47.80;;;;;;5026272;28;20807;-55
2023/02/13 10:02:58;;;;;;;10.80;8.57;;;13.00;47.60;;;;;;5025210;28;21007;-51
2023/02/13 10:05:41;;;;;;;9.80;8.27;;;13.40;47.60;;;;;;5024967;28;20480;-54
2023/02/13 10:08:33;;;;;;;9.13;8.07;;;13.60;47.20;;;;;;5025458;28;20189;-55
2023/02/13 10:11:20;;;;;;;9.77;7.73;;;13.60;47.00;;;;;;5025355;28;20444;-54
2023/02/13 10:14:01;;;;;;;11.17;8.23;;;13.90;46.60;;;;;;5027237;28;20454;-55
2023/02/13 10:16:35;;;;;;;9.77;8.47;;;14.20;46.20;;;;;;5020830;28;20506;-55
2023/02/13 10:19:23;;;;;;;9.43;8.43;;;14.40;45.90;;;;;;5018485;28;20832;-54
2023/02/13 10:21:57;;;;;;;11.00;8.77;;;14.50;45.40;;;;;;5028172;28;20778;-57
2023/02/13 10:24:40;;;;;;;9.77;8.77;;;14.60;45.10;;;;;;5024023;28;20494;-55
2023/02/13 10:27:29;;;;;;;9.77;8.40;;;14.40;45.30;;;;;;5025822;28;20495;-56
2023/02/13 10:30:03;;;;;;;11.90;9.10;;;14.50;45.20;;;;;;5022570;28;20564;-54
2023/02/13 10:32:40;;;;;;;10.17;8.73;;;14.40;45.50;;;;;;5027102;28;21023;-54
2023/02/13 10:35:29;;;;;;;10.20;9.10;;;14.50;45.80;;;;;;5028146;28;20491;-55
2023/02/13 10:37:57;;;;;;;11.40;9.30;;;14.80;45.10;;;;;;5029121;28;20525;-57
2023/02/13 10:40:37;;;;;;;12.23;8.13;;;15.10;44.80;;;;;;5027520;28;20452;-57
2023/02/13 10:43:08;;;;;;;10.70;8.27;;;15.20;44.70;;;;;;5027705;28;20483;-57
2023/02/13 10:45:34;;;;;;;7.87;6.73;;;15.60;44.60;;;;;;5019508;28;20547;-57
2023/02/13 10:48:13;;;;;;;9.53;7.60;;;15.80;44.50;;;;;;5024854;28;20562;-58
2023/02/13 10:51:04;;;;;;;11.70;8.93;;;15.90;43.60;;;;;;5022800;28;20207;-58
2023/02/13 10:53:44;;;;;;;12.87;7.73;;;16.00;42.40;;;;;;5025319;28;20534;-58
2023/02/13 10:56:50;;;;;;;12.27;7.07;;;16.20;44.00;;;;;;5022172;28;20478;-57
2023/02/13 10:59:49;;;;;;;8.30;5.90;;;16.80;43.30;;;;;;5024667;28;20525;-57
2023/02/13 11:02:31;;;;;;;9.07;8.17;;;17.40;41.90;;;;;;5023617;28;20475;-59
2023/02/13 11:05:01;;;;;;;11.60;9.33;;;17.80;40.60;;;;;;5019264;28;20501;-58
2023/02/13 11:07:29;;;;;;;11.50;9.63;;;17.90;40.70;;;;;;5029528;28;20454;-57
2023/02/13 11:10:00;;;;;;;10.00;8.97;;;17.90;40.90;;;;;;5020224;28;20535;-58
2023/02/13 11:12:29;;;;;;;8.80;8.00;;;17.70;40.40;;;;;;5028247;28;20522;-57
2023/02/13 11:15:07;;;;;;;10.90;9.80;;;17.70;40.60;;;;;;5023950;28;20497;-58
2023/02/13 11:17:40;;;;;;;10.63;9.30;;;17.60;40.40;;;;;;5026936;28;20466;-57
2023/02/13 11:20:25;;;;;;;9.80;8.90;;;17.70;40.30;;;;;;5020925;28;20444;-57
2023/02/13 11:22:51;;;;;;;10.83;9.77;;;17.60;40.30;;;;;;5024012;28;20488;-57
2023/02/13 11:25:24;;;;;;;9.87;8.93;;;17.60;40.60;;;;;;5026285;28;20436;-57
2023/02/13 11:27:53;;;;;;;10.00;9.00;;;17.70;40.20;;;;;;5021279;28;20217;-58
2023/02/13 11:30:22;;;;;;;10.00;9.00;;;17.70;40.00;;;;;;5026718;28;20896;-57
2023/02/13 11:32:59;;;;;;;11.00;8.80;;;17.80;40.10;;;;;;5025808;28;20453;-56
2023/02/13 11:35:31;;;;;;;9.70;8.80;;;17.80;40.10;;;;;;5021099;28;20486;-57
2023/02/13 11:38:17;;;;;;;10.57;9.47;;;17.70;40.10;;;;;;5019607;28;20462;-58
2023/02/13 11:40:48;;;;;;;11.47;9.60;;;17.80;40.20;;;;;;5024901;28;20502;-57
2023/02/13 11:43:41;;;;;;;9.80;8.90;;;17.70;40.20;;;;;;5023706;28;20515;-57
2023/02/13 11:46:16;;;;;;;9.70;8.47;;;17.50;40.50;;;;;;5026601;28;20440;-56
2023/02/13 11:48:43;;;;;;;10.20;9.20;;;17.60;40.50;;;;;;5012755;28;20481;-56
2023/02/13 11:51:08;;;;;;;11.87;8.93;;;17.60;40.50;;;;;;5022210;28;20447;-57
2023/02/13 11:53:39;;;;;;;9.00;8.10;;;17.50;41.00;;;;;;5022962;28;20804;-57
2023/02/13 11:56:10;;;;;;;10.50;9.17;;;17.50;40.30;;;;;;5029293;28;20224;-57
2023/02/13 11:58:37;;;;;;;9.63;8.63;;;17.60;40.40;;;;;;5021208;28;20448;-57
2023/02/13 12:01:20;;;;;;;9.03;8.13;;;17.60;39.90;;;;;;5015473;28;20440;-58
2023/02/13 12:04:25;;;;;;;9.70;8.80;;;17.80;40.20;;;;;;5021429;28;20491;-57
2023/02/13 12:06:58;;;;;;;10.47;7.97;;;17.80;40.10;;;;;;5000217;28;20456;-57
2023/02/13 12:09:24;;;;;;;9.43;8.07;;;17.80;39.40;;;;;;4998385;28;20812;-57
2023/02/13 12:11:56;;;;;;;8.57;7.67;;;17.40;39.40;;;;;;5011049;28;20447;-57
2023/02/13 12:14:27;;;;;;;8.23;7.43;;;17.50;40.20;;;;;;5028317;28;20280;-57
2023/02/13 12:17:01;;;;;;;7.20;6.60;;;17.40;39.60;;;;;;5015869;28;20956;-57
2023/02/13 12:19:39;;;;;;;6.50;5.47;;;16.80;39.70;;;;;;5019220;28;20461;-57
2023/02/13 12:22:14;;;;;;;7.77;5.90;;;17.00;40.50;;;;;;5019893;28;20538;-57
2023/02/13 12:24:42;;;;;;;6.30;5.70;;;17.60;39.60;;;;;;5023117;28;20455;-57
2023/02/13 12:27:41;;;;;;;8.63;6.30;;;17.80;38.80;;;;;;5024805;28;20531;-57
2023/02/13 12:30:15;;;;;;;7.10;6.40;;;18.10;38.40;;;;;;5017741;28;20498;-57
2023/02/13 12:32:47;;;;;;;5.53;4.87;;;18.20;37.70;;;;;;5021380;28;20448;-57
2023/02/13 12:35:57;;;;;;;6.73;6.07;;;18.10;37.90;;;;;;5014459;28;20945;-57
2023/02/13 12:38:42;;;;;;;6.83;6.23;;;18.00;38.30;;;;;;5001852;28;20461;-57
2023/02/13 12:41:21;;;;;;;7.00;6.30;;;18.10;38.00;;;;;;5026032;28;20440;-57
2023/02/13 12:43:49;;;;;;;7.90;6.47;;;17.90;37.80;;;;;;5026444;28;22211;-57
2023/02/13 12:46:28;;;;;;;6.73;6.13;;;18.20;38.20;;;;;;5025440;28;20513;-57
2023/02/13 12:49:31;;;;;;;5.73;5.13;;;18.40;37.80;;;;;;5023112;28;20447;-50
2023/02/13 12:52:34;;;;;;;6.53;5.90;;;18.30;37.90;;;;;;5019540;28;20460;-55
2023/02/13 12:55:12;;;;;;;6.60;6.00;;;18.60;37.80;;;;;;5015907;28;20511;-54
2023/02/13 12:57:54;;;;;;;6.40;5.80;;;18.70;37.50;;;;;;5018222;28;20846;-55
2023/02/13 13:00:20;;;;;;;6.60;5.90;;;18.60;37.20;;;;;;5025341;28;20479;-54
2023/02/13 13:03:03;;;;;;;7.50;6.70;;;18.30;37.80;;;;;;5025984;28;20487;-55
2023/02/13 13:05:51;;;;;;;9.27;6.13;;;18.30;38.00;;;;;;5015391;28;20205;-55
2023/02/13 13:08:23;;;;;;;7.27;6.57;;;17.60;38.40;;;;;;5022240;28;20501;-55
2023/02/13 13:11:10;;;;;;;6.60;5.80;;;17.40;39.40;;;;;;5028966;28;20487;-57
2023/02/13 13:13:52;;;;;;;7.07;6.37;;;17.60;39.30;;;;;;5024005;28;20943;-55
2023/02/13 13:16:31;;;;;;;6.80;6.20;;;17.70;38.80;;;;;;5027231;28;20947;-52
2023/02/13 13:19:14;;;;;;;7.03;6.33;;;17.60;39.60;;;;;;5019142;28;20519;-53
2023/02/13 13:22:01;;;;;;;7.27;6.57;;;17.70;39.60;;;;;;5028747;28;20463;-56
2023/02/13 13:24:41;;;;;;;7.10;5.87;;;17.60;39.70;;;;;;5020986;28;20460;-54
2023/02/13 13:27:30;;;;;;;6.93;6.33;;;17.80;39.50;;;;;;5023595;28;20527;-54
2023/02/13 13:30:01;;;;;;;6.90;6.23;;;18.30;39.30;;;;;;5023438;28;20480;-53
2023/02/13 13:32:29;;;;;;;5.93;5.43;;;18.20;38.10;;;;;;5021296;28;20480;-53
2023/02/13 13:34:56;;;;;;;6.90;6.20;;;18.00;39.20;;;;;;5026932;28;20444;-54
2023/02/13 13:37:31;;;;;;;6.63;6.03;;;17.90;38.90;;;;;;5015971;28;20939;-52